Whittemore, Michigan
Current Conditions -  °F | °C
As of 5:53 AM on Monday 20 Oct 2014 (Local Time) from KOSC Reporting Station
Light Rain Light Rain  
Wind Chill: 41°   Ceiling: 3500
Heat Index: 46°   Visibility: 10mi
Dew Point: 45°   Wind: 9mph
Humidity: 97%   Direction: 210°SSW
Pressure: 29.78"   Gusts: NA
Location:  44.23°N, 83.8°W
Report Text: KOSC 200953Z AUTO 21008KT 10SM -RA OVC035 07/07 A2978 RMK AO2 T00750070
Loading
Personal Weather Stations






























Interactive Weather Map
Tropical Storm Tracking
New forecast layout! Learn more

10-Day Weather Forecast

Advertisements
Track Severe Weather on mobile